Time;durP1;ratioP1;P1;durP2;ratioP2;P2;SDS_P1;SDS_P2;PMS_P1;PMS_P2;Temp;Humidity;BMP_temperature;BMP_pressure;BME280_temperature;BME280_humidity;BME280_pressure;Samples;Min_cycle;Max_cycle;Signal;HPM_P1;HPM_P2
2022/04/03 00:01:23;;;;;;;3.20;2.60;;;;;;;-148.33;100.00;56587.81;5068124;28;20071;-58
2022/04/03 00:03:49;;;;;;;4.93;2.43;;;;;;;-148.33;100.00;56587.81;5068075;28;20404;-59
2022/04/03 00:06:15;;;;;;;4.73;2.43;;;;;;;-148.33;100.00;56587.81;5048974;28;20458;-58
2022/04/03 00:08:40;;;;;;;6.07;2.63;;;;;;;-148.33;100.00;56587.81;5049526;28;20033;-58
2022/04/03 00:11:06;;;;;;;4.23;2.80;;;;;;;-148.33;100.00;56587.81;5049071;28;20025;-59
2022/04/03 00:13:31;;;;;;;3.03;2.20;;;;;;;-148.33;100.00;56587.81;5049567;28;20039;-58
2022/04/03 00:15:56;;;;;;;3.17;2.50;;;;;;;-148.33;100.00;56587.81;5048879;28;20020;-58
2022/04/03 00:18:22;;;;;;;3.93;2.60;;;;;;;-148.33;100.00;56587.81;5048805;28;20068;-59
2022/04/03 00:20:47;;;;;;;3.77;2.80;;;;;;;-148.33;100.00;56587.81;5048783;28;20439;-59
2022/04/03 00:23:13;;;;;;;3.07;2.23;;;;;;;-148.33;100.00;56587.81;5048744;28;20856;-56
2022/04/03 00:25:38;;;;;;;4.37;2.97;;;;;;;-148.33;100.00;56587.81;5048520;28;20029;-58
2022/04/03 00:28:04;;;;;;;3.97;2.57;;;;;;;-148.33;100.00;56587.81;5048936;28;20096;-59
2022/04/03 00:30:29;;;;;;;4.53;3.10;;;;;;;-148.33;100.00;56587.81;5049132;28;20056;-58
2022/04/03 00:32:55;;;;;;;8.13;3.93;;;;;;;-148.33;100.00;56587.81;5030480;28;20029;-58
2022/04/03 00:35:20;;;;;;;8.87;4.20;;;;;;;-148.33;100.00;56587.81;5048650;28;20110;-59
2022/04/03 00:37:46;;;;;;;4.80;3.50;;;;;;;-148.33;100.00;56587.81;5048899;28;20029;-58
2022/04/03 00:40:12;;;;;;;4.93;3.70;;;;;;;-148.33;100.00;56587.81;5048487;28;20032;-58
2022/04/03 00:42:39;;;;;;;5.23;3.20;;;;;;;-148.33;100.00;56587.81;5048118;28;20032;-60
2022/04/03 00:45:05;;;;;;;5.67;3.60;;;;;;;-148.33;100.00;56587.81;5048918;28;20462;-60
2022/04/03 00:47:31;;;;;;;3.67;3.00;;;;;;;-148.33;100.00;56587.81;5048353;28;20021;-59
2022/04/03 00:49:57;;;;;;;5.37;2.80;;;;;;;-148.33;100.00;56587.81;5047845;28;20098;-58
2022/04/03 00:52:23;;;;;;;4.27;3.33;;;;;;;-148.33;100.00;56587.81;5048521;28;20029;-59
2022/04/03 00:54:49;;;;;;;4.07;3.20;;;;;;;-148.33;100.00;56587.81;5048721;28;20385;-59
2022/04/03 00:57:14;;;;;;;7.33;3.27;;;;;;;-148.33;100.00;56587.81;5047876;28;20025;-57
2022/04/03 00:59:42;;;;;;;5.83;3.00;;;;;;;-148.33;100.00;56587.81;5048703;28;20021;-60
2022/04/03 01:02:08;;;;;;;3.60;2.83;;;;;;;-148.33;100.00;56587.81;5048043;28;20087;-58
2022/04/03 01:04:39;;;;;;;6.93;3.13;;;;;;;-148.33;100.00;56587.81;5047807;28;20033;-57
2022/04/03 01:07:05;;;;;;;3.30;2.50;;;;;;;-148.33;100.00;56587.81;5048074;28;20031;-57
2022/04/03 01:09:31;;;;;;;4.33;2.93;;;;;;;-148.33;100.00;56587.81;5046894;28;20079;-59
2022/04/03 01:11:56;;;;;;;4.80;2.97;;;;;;;-148.33;100.00;56587.81;5047831;28;20037;-57
2022/04/03 01:14:36;;;;;;;4.13;2.70;;;;;;;-148.33;100.00;56587.81;5030100;28;20013;-59
2022/04/03 01:17:02;;;;;;;5.13;2.93;;;;;;;-148.33;100.00;56587.81;5048372;28;20481;-57
2022/04/03 01:19:28;;;;;;;4.87;2.90;;;;;;;-148.33;100.00;56587.81;5047855;28;20021;-56
2022/04/03 01:21:54;;;;;;;4.80;3.13;;;;;;;-148.33;100.00;56587.81;5047843;28;20028;-56
2022/04/03 01:24:20;;;;;;;3.13;2.77;;;;;;;-148.33;100.00;56587.81;5061267;28;20477;-55
2022/04/03 01:26:47;;;;;;;2.80;2.60;;;;;;;-148.33;100.00;56587.81;5048738;28;20133;-59
2022/04/03 01:29:12;;;;;;;5.27;2.67;;;;;;;-148.33;100.00;56587.81;5039203;28;20515;-58
2022/04/03 01:31:37;;;;;;;3.93;2.70;;;;;;;-148.33;100.00;56587.81;5047769;28;20025;-57
2022/04/03 01:34:03;;;;;;;5.33;2.70;;;;;;;-148.33;100.00;56587.81;5047742;28;20040;-57
2022/04/03 01:36:28;;;;;;;3.50;3.10;;;;;;;-148.33;100.00;56587.81;5048054;28;20017;-58
2022/04/03 01:38:53;;;;;;;5.40;3.10;;;;;;;-148.33;100.00;56587.81;5047561;28;20112;-56
2022/04/03 01:41:19;;;;;;;5.23;2.83;;;;;;;-148.33;100.00;56587.81;5047248;28;20349;-57
2022/04/03 01:43:44;;;;;;;5.83;3.43;;;;;;;-148.33;100.00;56587.81;5048014;28;20029;-57
2022/04/03 01:46:09;;;;;;;4.40;2.77;;;;;;;-148.33;100.00;56587.81;5047947;28;20526;-58
2022/04/03 01:48:35;;;;;;;7.83;3.97;;;;;;;-148.33;100.00;56587.81;5047600;28;20031;-58
2022/04/03 01:51:00;;;;;;;4.17;2.97;;;;;;;-148.33;100.00;56587.81;5048027;28;20033;-58
2022/04/03 01:53:26;;;;;;;4.70;2.83;;;;;;;-148.33;100.00;56587.81;5048519;28;20103;-56
2022/04/03 01:56:03;;;;;;;4.60;3.07;;;;;;;-148.33;100.00;56587.81;5048544;28;20048;-57
2022/04/03 01:58:29;;;;;;;5.40;3.70;;;;;;;-148.33;100.00;56587.81;5048315;28;20047;-57
2022/04/03 02:00:55;;;;;;;3.87;3.00;;;;;;;-148.33;100.00;56587.81;5047885;28;20028;-57
2022/04/03 02:03:20;;;;;;;4.17;2.80;;;;;;;-148.33;100.00;56587.81;5047375;28;20075;-57
2022/04/03 02:05:45;;;;;;;4.67;3.77;;;;;;;-148.33;100.00;56587.81;5048185;28;20041;-59
2022/04/03 02:08:10;;;;;;;3.67;3.23;;;;;;;-148.33;100.00;56587.81;5047901;28;20040;-57
2022/04/03 02:10:36;;;;;;;5.53;3.70;;;;;;;-148.33;100.00;56587.81;5048757;28;20025;-58
2022/04/03 02:13:01;;;;;;;4.17;3.23;;;;;;;-148.33;100.00;56587.81;5047893;28;20029;-58
2022/04/03 02:15:27;;;;;;;4.77;3.07;;;;;;;-148.33;100.00;56587.81;5047456;28;20041;-57
2022/04/03 02:17:52;;;;;;;4.77;3.10;;;;;;;-148.33;100.00;56587.81;5048284;28;20453;-58
2022/04/03 02:20:17;;;;;;;3.90;3.03;;;;;;;-148.33;100.00;56587.81;5048306;28;20033;-58
2022/04/03 02:22:43;;;;;;;6.37;3.80;;;;;;;-148.33;100.00;56587.81;5051656;28;20556;-57
2022/04/03 02:25:09;;;;;;;3.90;3.50;;;;;;;-148.33;100.00;56587.81;5051329;28;20495;-56
2022/04/03 02:27:36;;;;;;;5.20;3.60;;;;;;;-148.33;100.00;56587.81;5051130;28;20037;-55
2022/04/03 02:30:04;;;;;;;4.27;3.00;;;;;;;-148.33;100.00;56587.81;5051185;28;20029;-57
2022/04/03 02:32:29;;;;;;;4.30;3.10;;;;;;;-148.33;100.00;56587.81;5051478;28;20051;-57
2022/04/03 02:34:54;;;;;;;4.50;3.17;;;;;;;-148.33;100.00;56587.81;5051411;28;20025;-57
2022/04/03 02:37:19;;;;;;;6.60;3.60;;;;;;;-148.33;100.00;56587.81;5051565;28;20029;-57
2022/04/03 02:39:45;;;;;;;3.50;3.20;;;;;;;-148.33;100.00;56587.81;5069849;28;20024;-58
2022/04/03 02:42:11;;;;;;;5.27;3.30;;;;;;;-148.33;100.00;56587.81;5070040;28;20032;-58
2022/04/03 02:44:36;;;;;;;5.13;3.40;;;;;;;-148.33;100.00;56587.81;5070289;28;20025;-58
2022/04/03 02:47:02;;;;;;;5.33;3.50;;;;;;;-148.33;100.00;56587.81;5070362;28;20028;-56
2022/04/03 02:49:27;;;;;;;6.93;3.20;;;;;;;-148.33;100.00;56587.81;5070040;28;20040;-58
2022/04/03 02:51:52;;;;;;;5.63;3.40;;;;;;;-148.33;100.00;56587.81;5070323;28;20036;-58
2022/04/03 02:54:18;;;;;;;5.73;3.03;;;;;;;-148.33;100.00;56587.81;5052210;28;20070;-59
2022/04/03 02:56:43;;;;;;;4.90;3.20;;;;;;;-148.33;100.00;56587.81;5070135;28;20409;-57
2022/04/03 02:59:09;;;;;;;4.83;3.30;;;;;;;-148.33;100.00;56587.81;5070403;28;20091;-58
2022/04/03 03:01:34;;;;;;;5.40;3.50;;;;;;;-148.33;100.00;56587.81;5069050;28;20052;-57
2022/04/03 03:03:59;;;;;;;4.37;3.43;;;;;;;-148.33;100.00;56587.81;5070306;28;20029;-57
2022/04/03 03:06:24;;;;;;;9.57;3.77;;;;;;;-148.33;100.00;56587.81;5069991;28;20450;-58
2022/04/03 03:08:50;;;;;;;3.60;3.30;;;;;;;-148.33;100.00;56587.81;5069984;28;20194;-57
2022/04/03 03:11:16;;;;;;;5.33;3.40;;;;;;;-148.33;100.00;56587.81;5069561;28;20393;-57
2022/04/03 03:13:41;;;;;;;4.27;3.37;;;;;;;-148.33;100.00;56587.81;5069849;28;20480;-58
2022/04/03 03:16:07;;;;;;;4.87;3.63;;;;;;;-148.33;100.00;56587.81;5069720;28;20024;-56
2022/04/03 03:18:32;;;;;;;6.23;3.43;;;;;;;-148.33;100.00;56587.81;5069697;28;20029;-57
2022/04/03 03:20:58;;;;;;;5.17;3.53;;;;;;;-148.33;100.00;56587.81;5069859;28;20059;-58
2022/04/03 03:23:23;;;;;;;6.93;4.17;;;;;;;-148.33;100.00;56587.81;5070366;28;20078;-57
2022/04/03 03:25:48;;;;;;;5.03;3.30;;;;;;;-148.33;100.00;56587.81;5069563;28;20028;-57
2022/04/03 03:28:13;;;;;;;6.67;3.17;;;;;;;-148.33;100.00;56587.81;5069608;28;20249;-57
2022/04/03 03:30:39;;;;;;;5.33;4.27;;;;;;;-148.33;100.00;56587.81;5069079;28;20028;-58
2022/04/03 03:33:05;;;;;;;5.60;3.47;;;;;;;-148.33;100.00;56587.81;5069102;28;20426;-58
2022/04/03 03:35:31;;;;;;;5.47;3.37;;;;;;;-148.33;100.00;56587.81;5069539;28;20082;-58
2022/04/03 03:37:57;;;;;;;5.13;3.07;;;;;;;-148.33;100.00;56587.81;5069291;28;20028;-58
2022/04/03 03:40:23;;;;;;;5.70;3.63;;;;;;;-148.33;100.00;56587.81;5051276;28;20048;-57
2022/04/03 03:42:48;;;;;;;6.43;3.80;;;;;;;-148.33;100.00;56587.81;5069260;28;20016;-59
2022/04/03 03:45:14;;;;;;;6.53;3.87;;;;;;;-148.33;100.00;56587.81;5068459;28;20111;-55
2022/04/03 03:47:43;;;;;;;6.37;3.67;;;;;;;-148.33;100.00;56587.81;5069490;28;20028;-57
2022/04/03 03:50:08;;;;;;;4.23;3.83;;;;;;;-148.33;100.00;56587.81;5069452;28;20070;-57
2022/04/03 03:52:34;;;;;;;4.33;3.70;;;;;;;-148.33;100.00;56587.81;5069117;28;20033;-56
2022/04/03 03:54:59;;;;;;;4.90;4.00;;;;;;;-148.33;100.00;56587.81;5068735;28;20025;-58
2022/04/03 03:57:25;;;;;;;9.00;3.97;;;;;;;-148.33;100.00;56587.81;5068378;28;20028;-57
2022/04/03 03:59:51;;;;;;;5.13;3.60;;;;;;;-148.33;100.00;56587.81;5068983;28;20119;-57
2022/04/03 04:02:17;;;;;;;5.30;3.60;;;;;;;-148.33;100.00;56587.81;5068552;28;20052;-58
2022/04/03 04:04:42;;;;;;;4.80;3.77;;;;;;;-148.33;100.00;56587.81;5068067;28;20074;-58
2022/04/03 04:07:07;;;;;;;5.70;4.37;;;;;;;-148.33;100.00;56587.81;5067596;28;20385;-56
2022/04/03 04:09:33;;;;;;;4.87;3.50;;;;;;;-148.33;100.00;56587.81;5049880;28;20028;-57
2022/04/03 04:11:58;;;;;;;6.73;4.07;;;;;;;-148.33;100.00;56587.81;5049640;28;20028;-58
2022/04/03 04:14:23;;;;;;;4.50;3.60;;;;;;;-148.33;100.00;56587.81;5049279;28;20100;-56
2022/04/03 04:16:48;;;;;;;4.33;3.87;;;;;;;-148.33;100.00;56587.81;5049394;28;20381;-57
2022/04/03 04:19:15;;;;;;;3.77;3.27;;;;;;;-148.33;100.00;56587.81;5049516;28;20877;-59
2022/04/03 04:21:40;;;;;;;6.20;4.37;;;;;;;-148.33;100.00;56587.81;5068782;28;20020;-57
2022/04/03 04:24:06;;;;;;;5.87;4.13;;;;;;;-148.33;100.00;56587.81;5068111;28;20385;-58
2022/04/03 04:26:31;;;;;;;6.63;4.10;;;;;;;-148.33;100.00;56587.81;5068851;28;20032;-57
2022/04/03 04:28:56;;;;;;;5.97;4.30;;;;;;;-148.33;100.00;56587.81;5068269;28;20082;-56
2022/04/03 04:31:22;;;;;;;8.80;4.20;;;;;;;-148.33;100.00;56587.81;5067913;28;20396;-58
2022/04/03 04:33:47;;;;;;;8.07;4.07;;;;;;;-148.33;100.00;56587.81;5068901;28;20056;-57
2022/04/03 04:36:12;;;;;;;7.80;4.37;;;;;;;-148.33;100.00;56587.81;5068306;28;20039;-57
2022/04/03 04:38:38;;;;;;;7.17;4.27;;;;;;;-148.33;100.00;56587.81;5067645;28;20059;-57
2022/04/03 04:41:04;;;;;;;8.53;4.43;;;;;;;-148.33;100.00;56587.81;5068109;28;20078;-58
2022/04/03 04:43:30;;;;;;;6.93;4.80;;;;;;;-148.33;100.00;56587.81;5067488;28;20028;-59
2022/04/03 04:45:55;;;;;;;5.40;4.77;;;;;;;-148.33;100.00;56587.81;5067354;28;20028;-58
2022/04/03 04:48:20;;;;;;;7.80;5.47;;;;;;;-148.33;100.00;56587.81;5068224;28;20353;-58
2022/04/03 04:50:46;;;;;;;6.70;4.80;;;;;;;-148.33;100.00;56587.81;5067608;28;20431;-57
2022/04/03 04:53:11;;;;;;;9.13;4.93;;;;;;;-148.33;100.00;56587.81;5068307;28;20031;-57
2022/04/03 04:55:36;;;;;;;7.07;4.00;;;;;;;-148.33;100.00;56587.81;5068045;28;20023;-57
2022/04/03 04:58:02;;;;;;;5.73;4.23;;;;;;;-148.33;100.00;56587.81;5067731;28;20064;-57
2022/04/03 05:00:29;;;;;;;5.67;3.93;;;;;;;-148.33;100.00;56587.81;5065846;28;20017;-59
2022/04/03 05:02:55;;;;;;;5.57;4.23;;;;;;;-148.33;100.00;56587.81;5065326;28;20426;-59
2022/04/03 05:05:26;;;;;;;6.83;3.80;;;;;;;-148.33;100.00;56587.81;5065771;28;20024;-58
2022/04/03 05:07:54;;;;;;;6.63;3.97;;;;;;;-148.33;100.00;56587.81;5067346;28;20431;-58
2022/04/03 05:10:20;;;;;;;6.37;4.07;;;;;;;-148.33;100.00;56587.81;5067959;28;20460;-59
2022/04/03 05:12:46;;;;;;;6.70;4.00;;;;;;;-148.33;100.00;56587.81;5067818;28;20021;-58
2022/04/03 05:15:12;;;;;;;6.53;4.37;;;;;;;-148.33;100.00;56587.81;5067956;28;20020;-57
2022/04/03 05:17:38;;;;;;;7.17;4.00;;;;;;;-148.33;100.00;56587.81;5067656;28;20024;-57
2022/04/03 05:20:04;;;;;;;5.13;4.30;;;;;;;-148.33;100.00;56587.81;5067182;28;20459;-57
2022/04/03 05:22:29;;;;;;;7.67;4.40;;;;;;;-148.33;100.00;56587.81;5068380;28;20054;-57
2022/04/03 05:24:55;;;;;;;6.07;3.97;;;;;;;-148.33;100.00;56587.81;5067507;28;20037;-54
2022/04/03 05:27:21;;;;;;;8.77;4.43;;;;;;;-148.33;100.00;56587.81;5067753;28;20503;-57
2022/04/03 05:29:46;;;;;;;5.77;4.27;;;;;;;-148.33;100.00;56587.81;5067741;28;20107;-57
2022/04/03 05:32:12;;;;;;;6.17;4.40;;;;;;;-148.33;100.00;56587.81;5067736;28;20488;-58
2022/04/03 05:34:38;;;;;;;5.47;4.30;;;;;;;-148.33;100.00;56587.81;5067477;28;20154;-57
2022/04/03 05:37:03;;;;;;;7.00;4.60;;;;;;;-148.33;100.00;56587.81;5067860;28;20068;-58
2022/04/03 05:39:29;;;;;;;8.00;4.10;;;;;;;-148.33;100.00;56587.81;5067240;28;20035;-58
2022/04/03 05:41:55;;;;;;;6.23;4.50;;;;;;;-148.33;100.00;56587.81;5067351;28;20032;-54
2022/04/03 05:44:21;;;;;;;5.27;4.20;;;;;;;-148.33;100.00;56587.81;5067718;28;20047;-58
2022/04/03 05:46:48;;;;;;;9.03;3.80;;;;;;;-148.33;100.00;56587.81;5067171;28;20029;-57
2022/04/03 05:49:14;;;;;;;8.13;4.23;;;;;;;-148.33;100.00;56587.81;5067703;28;20498;-58
2022/04/03 05:51:40;;;;;;;6.43;4.40;;;;;;;-148.33;100.00;56587.81;5067638;28;20475;-57
2022/04/03 05:54:06;;;;;;;7.57;4.33;;;;;;;-148.33;100.00;56587.81;5067563;28;20387;-59
2022/04/03 05:56:31;;;;;;;10.87;4.33;;;;;;;-148.33;100.00;56587.81;5070175;28;20017;-58
2022/04/03 05:58:57;;;;;;;5.20;4.70;;;;;;;-148.33;100.00;56587.81;5071595;28;20021;-58
2022/04/03 06:01:23;;;;;;;5.70;4.43;;;;;;;-148.33;100.00;56587.81;5070908;28;20024;-58
2022/04/03 06:03:48;;;;;;;7.03;4.03;;;;;;;-148.33;100.00;56587.81;5071229;28;20393;-59
2022/04/03 06:06:14;;;;;;;6.40;4.10;;;;;;;-148.33;100.00;56587.81;5071304;28;20031;-58
2022/04/03 06:08:39;;;;;;;7.20;4.37;;;;;;;-148.33;100.00;56587.81;5070020;28;20020;-58
2022/04/03 06:11:04;;;;;;;6.37;4.47;;;;;;;-148.33;100.00;56587.81;5071518;28;20440;-59
2022/04/03 06:13:30;;;;;;;5.20;4.70;;;;;;;-148.33;100.00;56587.81;5071360;28;20100;-59
2022/04/03 06:15:55;;;;;;;6.57;4.50;;;;;;;-148.33;100.00;56587.81;5070454;28;20024;-57
2022/04/03 06:18:20;;;;;;;7.03;4.57;;;;;;;-148.33;100.00;56587.81;5071127;28;20412;-59
2022/04/03 06:20:46;;;;;;;6.00;5.27;;;;;;;-148.33;100.00;56587.81;5051742;28;20074;-59
2022/04/03 06:23:14;;;;;;;7.83;4.73;;;;;;;-148.33;100.00;56587.81;5051887;28;20025;-60
2022/04/03 06:25:39;;;;;;;6.90;4.80;;;;;;;-148.33;100.00;56587.81;5051856;28;20029;-59
2022/04/03 06:28:05;;;;;;;7.33;4.97;;;;;;;-148.33;100.00;56587.81;5052312;28;20017;-59
2022/04/03 06:30:30;;;;;;;6.67;5.30;;;;;;;-148.33;100.00;56587.81;5051212;28;20025;-60
2022/04/03 06:32:56;;;;;;;7.57;5.10;;;;;;;-148.33;100.00;56587.81;5051557;28;20530;-58
2022/04/03 06:35:21;;;;;;;7.07;4.40;;;;;;;-148.33;100.00;56587.81;5051887;28;20428;-56
2022/04/03 06:37:47;;;;;;;8.03;5.57;;;;;;;-148.33;100.00;56587.81;5051354;28;20060;-58
2022/04/03 06:40:13;;;;;;;5.97;4.60;;;;;;;-148.33;100.00;56587.81;5051305;28;20021;-60
2022/04/03 06:42:40;;;;;;;7.70;6.20;;;;;;;-148.33;100.00;56587.81;5051224;28;20425;-58
2022/04/03 06:45:05;;;;;;;7.90;5.37;;;;;;;-148.33;100.00;56587.81;5051465;28;20045;-59
2022/04/03 06:47:31;;;;;;;10.77;5.60;;;;;;;-148.33;100.00;56587.81;5051078;28;20326;-58
2022/04/03 06:49:58;;;;;;;9.13;5.20;;;;;;;-148.33;100.00;56587.81;5051192;28;20392;-58
2022/04/03 06:52:23;;;;;;;7.93;4.90;;;;;;;-148.33;100.00;56587.81;5051283;28;20017;-58
2022/04/03 06:54:48;;;;;;;6.53;5.07;;;;;;;-148.33;100.00;56587.81;5050756;28;20032;-59
2022/04/03 06:57:14;;;;;;;11.27;4.73;;;;;;;-148.33;100.00;56587.81;5051291;28;20628;-59
2022/04/03 06:59:41;;;;;;;14.40;5.37;;;;;;;-148.33;100.00;56587.81;5051636;28;20469;-58
2022/04/03 07:02:07;;;;;;;7.73;5.27;;;;;;;-148.33;100.00;56587.81;5051006;28;20391;-59
2022/04/03 07:04:33;;;;;;;5.83;5.17;;;;;;;-148.33;100.00;56587.81;5051174;28;20112;-59
2022/04/03 07:06:58;;;;;;;7.57;5.57;;;;;;;-148.33;100.00;56587.81;5049557;28;20104;-59
2022/04/03 07:09:23;;;;;;;7.20;5.57;;;;;;;-148.33;100.00;56587.81;5050689;28;20626;-55
2022/04/03 07:11:49;;;;;;;4.97;4.43;;;;;;;-148.33;100.00;56587.81;5050954;28;20028;-57
2022/04/03 07:14:14;;;;;;;6.73;5.03;;;;;;;-148.33;100.00;56587.81;5051270;28;20071;-57
2022/04/03 07:16:39;;;;;;;6.30;4.67;;;;;;;-148.33;100.00;56587.81;5051118;28;20021;-59
2022/04/03 07:19:05;;;;;;;5.67;4.40;;;;;;;-148.33;100.00;56587.81;5050561;28;20025;-58
2022/04/03 07:21:30;;;;;;;6.50;5.30;;;;;;;-148.33;100.00;56587.81;5050887;28;20465;-57
2022/04/03 07:23:55;;;;;;;7.50;4.77;;;;;;;-148.33;100.00;56587.81;5050603;28;20068;-58
2022/04/03 07:26:21;;;;;;;8.10;5.07;;;;;;;-148.33;100.00;56587.81;5050796;28;20480;-58
2022/04/03 07:28:46;;;;;;;5.80;5.20;;;;;;;-148.33;100.00;56587.81;5051142;28;20021;-58
2022/04/03 07:31:11;;;;;;;8.77;6.00;;;;;;;-148.33;100.00;56587.81;5050434;28;20059;-59
2022/04/03 07:33:36;;;;;;;6.53;5.73;;;;;;;-148.33;100.00;56587.81;5050163;28;20376;-59
2022/04/03 07:36:02;;;;;;;6.90;5.17;;;;;;;-148.33;100.00;56587.81;5050928;28;20035;-57
2022/04/03 07:38:28;;;;;;;7.70;5.83;;;;;;;-148.33;100.00;56587.81;5050740;28;20033;-58
2022/04/03 07:40:53;;;;;;;6.80;4.70;;;;;;;-148.33;100.00;56587.81;5050470;28;20044;-59
2022/04/03 07:43:18;;;;;;;8.43;4.73;;;;;;;-148.33;100.00;56587.81;5050448;28;20032;-58
2022/04/03 07:45:45;;;;;;;6.67;4.30;;;;;;;-148.33;100.00;56587.81;5050043;28;20450;-61
2022/04/03 07:48:10;;;;;;;5.45;4.20;;;;;;;-148.33;100.00;56587.81;5050233;28;20442;-59
2022/04/03 07:50:36;;;;;;;6.45;3.63;;;;;;;-148.33;100.00;56587.81;5050462;28;20262;-57
2022/04/03 07:53:01;;;;;;;7.93;4.18;;;;;;;-148.33;100.00;56587.81;5050142;28;20120;-56
2022/04/03 07:55:26;;;;;;;4.72;3.88;;;;;;;-148.33;100.00;56587.81;5049678;28;20082;-56
2022/04/03 07:57:52;;;;;;;6.53;3.63;;;;;;;-148.33;100.00;56587.81;5050439;28;20057;-56
2022/04/03 08:00:17;;;;;;;5.60;3.90;;;;;;;-148.33;100.00;56587.81;5049975;28;20430;-58
2022/04/03 08:02:43;;;;;;;4.43;3.58;;;;;;;-148.33;100.00;56587.81;5049857;28;20049;-57
2022/04/03 08:05:09;;;;;;;4.63;3.35;;;;;;;-148.33;100.00;56587.81;5050058;28;20104;-56
2022/04/03 08:07:40;;;;;;;10.85;4.28;;;;;;;-148.33;100.00;56587.81;5049782;28;20107;-58
2022/04/03 08:10:08;;;;;;;4.82;2.95;;;;;;;-148.33;100.00;56587.81;5050093;28;20025;-58
2022/04/03 08:12:35;;;;;;;4.82;3.40;;;;;;;-148.33;100.00;56587.81;5049658;28;20029;-56
2022/04/03 08:15:00;;;;;;;3.85;3.10;;;;;;;-148.33;100.00;56587.81;5049963;28;20035;-58
2022/04/03 08:17:26;;;;;;;4.10;3.03;;;;;;;-148.33;100.00;56587.81;5049618;28;20029;-57
2022/04/03 08:19:51;;;;;;;3.42;2.50;;;;;;;-148.33;100.00;56587.81;5049254;28;20037;-58
2022/04/03 08:22:16;;;;;;;3.53;2.20;;;;;;;-148.33;100.00;56587.81;5049087;28;20058;-59
2022/04/03 08:24:41;;;;;;;3.10;2.22;;;;;;;-148.33;100.00;56587.81;5049294;28;20078;-58
2022/04/03 08:27:07;;;;;;;3.78;1.90;;;;;;;-148.33;100.00;56587.81;5049477;28;20057;-58
2022/04/03 08:29:32;;;;;;;3.35;1.70;;;;;;;-148.33;100.00;56587.81;5049863;28;20033;-59
2022/04/03 08:31:58;;;;;;;2.88;1.95;;;;;;;-148.33;100.00;56587.81;5060235;28;20031;-58
2022/04/03 08:34:23;;;;;;;1.65;1.45;;;;;;;-148.33;100.00;56587.81;5068278;28;20025;-59
2022/04/03 08:36:48;;;;;;;3.28;1.55;;;;;;;-148.33;100.00;56587.81;5068387;28;20066;-57
2022/04/03 08:39:14;;;;;;;1.85;1.35;;;;;;;-148.33;100.00;56587.81;5068620;28;20033;-57
2022/04/03 08:41:39;;;;;;;2.35;1.55;;;;;;;-148.33;100.00;56587.81;5068779;28;20460;-59
2022/04/03 08:44:07;;;;;;;2.58;1.50;;;;;;;-148.33;100.00;56587.81;5068682;28;20036;-58
2022/04/03 08:46:33;;;;;;;2.65;1.45;;;;;;;-148.33;100.00;56587.81;5067830;28;20032;-59
2022/04/03 08:49:00;;;;;;;1.95;1.30;;;;;;;-148.33;100.00;56587.81;5067995;28;20497;-58
2022/04/03 08:51:30;;;;;;;3.50;1.30;;;;;;;-148.33;100.00;56587.81;5068421;28;20036;-57
2022/04/03 08:53:55;;;;;;;3.30;1.20;;;;;;;-148.33;100.00;56587.81;5067896;28;20028;-58
2022/04/03 08:56:20;;;;;;;5.07;1.25;;;;;;;-148.33;100.00;56587.81;5067936;28;20465;-59
2022/04/03 08:58:45;;;;;;;3.95;1.13;;;;;;;-148.33;100.00;56587.81;5068634;28;20131;-58
2022/04/03 09:01:11;;;;;;;3.03;1.40;;;;;;;-148.33;100.00;56587.81;5067917;28;20086;-56
2022/04/03 09:03:37;;;;;;;1.60;1.10;;;;;;;-148.33;100.00;56587.81;5067954;28;20031;-58
2022/04/03 09:06:16;;;;;;;4.53;1.33;;;;;;;-148.33;100.00;56587.81;5068013;28;20056;-58
2022/04/03 09:08:42;;;;;;;2.80;1.38;;;;;;;-148.33;100.00;56587.81;5067774;28;20583;-58
2022/04/03 09:11:08;;;;;;;2.85;1.65;;;;;;;-148.33;100.00;56587.81;5068097;28;20145;-58
2022/04/03 09:13:35;;;;;;;2.00;1.17;;;;;;;-148.33;100.00;56587.81;5068188;28;20455;-57
2022/04/03 09:16:01;;;;;;;2.35;1.52;;;;;;;-148.33;100.00;56587.81;5068357;28;20059;-58
2022/04/03 09:18:50;;;;;;;5.15;1.50;;;;;;;-148.33;100.00;56587.81;5067844;28;20036;-58
2022/04/03 09:21:19;;;;;;;2.80;1.58;;;;;;;-148.33;100.00;56587.81;5067515;28;20418;-58
2022/04/03 09:24:02;;;;;;;3.30;1.70;;;;;;;-148.33;100.00;56587.81;5067660;28;20056;-58
2022/04/03 09:26:28;;;;;;;2.05;1.10;;;;;;;-148.33;100.00;56587.81;5048859;28;20090;-58
2022/04/03 09:29:13;;;;;;;2.50;1.30;;;;;;;-148.33;100.00;56587.81;5048805;28;20078;-58
2022/04/03 09:31:40;;;;;;;3.83;1.70;;;;;;;-148.33;100.00;56587.81;5053473;28;20028;-59
2022/04/03 09:34:08;;;;;;;3.38;1.50;;;;;;;-148.33;100.00;56587.81;5055608;28;20025;-57
2022/04/03 09:36:35;;;;;;;2.28;1.00;;;;;;;-148.33;100.00;56587.81;5055374;28;20033;-58
2022/04/03 09:39:16;;;;;;;1.58;1.20;;;;;;;-148.33;100.00;56587.81;5055744;28;20029;-57
2022/04/03 09:41:56;;;;;;;2.03;1.02;;;;;;;-148.33;100.00;56587.81;5055194;28;20292;-59
2022/04/03 09:44:26;;;;;;;1.30;0.70;;;;;;;-148.33;100.00;56587.81;5055235;28;20048;-59
2022/04/03 09:47:11;;;;;;;2.47;1.08;;;;;;;-148.33;100.00;56587.81;5054911;28;20158;-59
2022/04/03 09:49:37;;;;;;;2.72;1.02;;;;;;;-148.33;100.00;56587.81;5054615;28;20051;-59
2022/04/03 09:52:03;;;;;;;2.28;0.90;;;;;;;-148.33;100.00;56587.81;5055080;28;20128;-59
2022/04/03 09:54:28;;;;;;;2.90;0.75;;;;;;;-148.33;100.00;56587.81;5054927;28;20473;-60
2022/04/03 09:56:54;;;;;;;1.38;0.70;;;;;;;-148.33;100.00;56587.81;5055427;28;20029;-59
2022/04/03 09:59:19;;;;;;;2.08;0.88;;;;;;;-148.33;100.00;56587.81;5055250;28;20036;-59
2022/04/03 10:01:44;;;;;;;2.47;1.20;;;;;;;-148.33;100.00;56587.81;5054487;28;20048;-59
2022/04/03 10:04:13;;;;;;;1.38;0.85;;;;;;;-148.33;100.00;56587.81;5054933;28;20086;-57
2022/04/03 10:06:40;;;;;;;1.60;0.88;;;;;;;-148.33;100.00;56587.81;5055126;28;20428;-59
2022/04/03 10:09:14;;;;;;;2.63;0.80;;;;;;;-148.33;100.00;56587.81;5054724;28;20107;-59
2022/04/03 10:11:41;;;;;;;1.40;0.80;;;;;;;-148.33;100.00;56587.81;5054835;28;20473;-59
2022/04/03 10:14:07;;;;;;;1.63;0.90;;;;;;;-148.33;100.00;56587.81;5054844;28;20428;-58
2022/04/03 10:16:32;;;;;;;2.20;0.95;;;;;;;-148.33;100.00;56587.81;5054652;28;20298;-59
2022/04/03 10:18:58;;;;;;;1.88;1.00;;;;;;;-148.33;100.00;56587.81;5054647;28;20056;-59
2022/04/03 10:21:30;;;;;;;3.42;1.00;;;;;;;-148.33;100.00;56587.81;5074360;28;20037;-59
2022/04/03 10:24:02;;;;;;;3.80;0.90;;;;;;;-148.33;100.00;56587.81;5073555;28;20150;-59
2022/04/03 10:26:28;;;;;;;1.50;0.60;;;;;;;-148.33;100.00;56587.81;5073503;28;20028;-58
2022/04/03 10:28:57;;;;;;;0.93;0.60;;;;;;;-148.33;100.00;56587.81;5074014;28;20383;-59
2022/04/03 10:31:22;;;;;;;1.27;0.68;;;;;;;-148.33;100.00;56587.81;5074031;28;20024;-59
2022/04/03 10:33:50;;;;;;;3.10;0.60;;;;;;;-148.33;100.00;56587.81;5073253;28;20465;-57
2022/04/03 10:36:26;;;;;;;0.95;0.70;;;;;;;-148.33;100.00;56587.81;5074121;28;20110;-58
2022/04/03 10:39:06;;;;;;;1.42;0.73;;;;;;;-148.33;100.00;56587.81;5073837;28;20032;-58
2022/04/03 10:41:39;;;;;;;2.42;0.80;;;;;;;-148.33;100.00;56587.81;5073321;28;20036;-60
2022/04/03 10:44:18;;;;;;;2.22;0.80;;;;;;;-148.33;100.00;56587.81;5070817;28;20476;-58
2022/04/03 10:47:02;;;;;;;1.48;0.68;;;;;;;-148.33;100.00;56587.81;5070587;28;20028;-58
2022/04/03 10:49:48;;;;;;;4.30;0.77;;;;;;;-148.33;100.00;56587.81;5070867;28;20028;-59
2022/04/03 10:52:22;;;;;;;1.88;0.70;;;;;;;-148.33;100.00;56587.81;5070763;28;20020;-59
2022/04/03 10:54:53;;;;;;;3.55;0.73;;;;;;;-148.33;100.00;56587.81;5070839;28;20052;-60
2022/04/03 10:57:31;;;;;;;3.10;0.80;;;;;;;-148.33;100.00;56587.81;5069894;28;20024;-60
2022/04/03 11:00:12;;;;;;;1.40;0.55;;;;;;;-148.33;100.00;56587.81;5070214;28;20024;-58
2022/04/03 11:02:38;;;;;;;1.15;0.60;;;;;;;-148.33;100.00;56587.81;5070098;28;20080;-58
2022/04/03 11:05:21;;;;;;;2.55;0.77;;;;;;;-148.33;100.00;56587.81;5069945;28;20071;-58
2022/04/03 11:08:04;;;;;;;2.42;0.85;;;;;;;-148.33;100.00;56587.81;5070086;28;20028;-58